createdAt,value
2018-03-07T00:00:38.723Z,21.20
2018-03-07T00:01:38.688Z,21.70
2018-03-07T00:03:35.151Z,21.50
2018-03-07T00:04:35.155Z,21.30
2018-03-07T00:06:30.541Z,21.80
2018-03-07T00:07:30.553Z,20.90
2018-03-07T00:09:26.541Z,22.00
2018-03-07T00:10:26.506Z,22.30
2018-03-07T00:12:22.465Z,21.90
2018-03-07T00:13:22.955Z,21.20
2018-03-07T00:15:18.391Z,22.90
2018-03-07T00:16:18.381Z,22.40
2018-03-07T00:18:14.335Z,21.90
2018-03-07T00:19:14.308Z,22.90
2018-03-07T00:21:10.221Z,23.40
2018-03-07T00:22:10.218Z,22.50
2018-03-07T00:24:06.658Z,21.90
2018-03-07T00:25:06.153Z,22.00
2018-03-07T00:27:02.077Z,21.80
2018-03-07T00:28:02.585Z,24.20
2018-03-07T00:29:59.528Z,22.10
2018-03-07T00:30:58.034Z,23.00
2018-03-07T00:32:53.963Z,22.50
2018-03-07T00:33:53.954Z,21.20
2018-03-07T00:35:49.890Z,23.00
2018-03-07T00:36:49.909Z,22.60
2018-03-07T00:38:46.331Z,22.40
2018-03-07T00:39:45.825Z,22.40
2018-03-07T00:41:41.745Z,21.10
2018-03-07T00:42:41.732Z,21.90
2018-03-07T00:44:37.720Z,20.80
2018-03-07T00:45:37.689Z,21.00
2018-03-07T00:47:34.141Z,20.90
2018-03-07T00:48:33.620Z,21.50
2018-03-07T00:50:30.588Z,21.10
2018-03-07T00:51:29.581Z,21.00
2018-03-07T00:53:26.018Z,21.70
2018-03-07T00:54:25.610Z,22.80
2018-03-07T00:56:21.458Z,22.80
2018-03-07T00:57:21.445Z,22.40
2018-03-07T00:59:17.383Z,24.30
2018-03-07T01:00:17.381Z,23.30
2018-03-07T01:02:13.340Z,24.00
2018-03-07T01:03:13.310Z,23.30
2018-03-07T01:05:10.788Z,23.50
2018-03-07T01:06:09.260Z,25.20
2018-03-07T01:08:04.635Z,24.20
2018-03-07T01:09:03.718Z,23.90
2018-03-07T01:10:59.645Z,25.10
2018-03-07T01:12:00.157Z,24.40
2018-03-07T01:13:57.523Z,25.10
2018-03-07T01:14:56.091Z,25.20
2018-03-07T01:16:51.495Z,25.40
2018-03-07T01:17:51.494Z,26.50
2018-03-07T01:19:47.946Z,26.40
2018-03-07T01:20:47.409Z,26.40
2018-03-07T01:22:43.349Z,24.90
2018-03-07T01:23:43.355Z,27.10
2018-03-07T01:25:39.281Z,27.60
2018-03-07T01:26:39.295Z,25.40
2018-03-07T01:28:37.256Z,26.50
2018-03-07T01:29:37.190Z,27.20
2018-03-07T01:31:34.170Z,25.50
2018-03-07T01:32:33.152Z,25.60
2018-03-07T01:34:30.086Z,25.40
2018-03-07T01:35:29.085Z,25.30
2018-03-07T01:37:26.022Z,25.50
2018-03-07T01:38:25.023Z,24.20
2018-03-07T01:40:22.481Z,25.40
2018-03-07T01:41:21.470Z,24.70
2018-03-07T01:43:16.906Z,24.40
2018-03-07T01:44:16.901Z,23.70
2018-03-07T01:46:12.854Z,23.50
2018-03-07T01:47:12.823Z,25.80
2018-03-07T01:49:08.780Z,23.40
2018-03-07T01:50:08.710Z,23.80
2018-03-07T01:52:05.171Z,25.00
2018-03-07T01:53:04.665Z,24.70
2018-03-07T01:55:00.585Z,25.00
2018-03-07T01:56:00.587Z,25.20
2018-03-07T01:57:56.511Z,25.20
2018-03-07T01:58:56.511Z,24.60
2018-03-07T02:00:52.959Z,24.20
2018-03-07T02:01:52.439Z,24.60
2018-03-07T02:03:48.382Z,23.00
2018-03-07T02:04:48.386Z,22.30
2018-03-07T02:06:44.350Z,20.60
2018-03-07T02:07:44.315Z,21.90
2018-03-07T02:09:40.275Z,21.40
2018-03-07T02:10:40.755Z,19.90
2018-03-07T02:12:36.165Z,20.80
2018-03-07T02:13:36.159Z,21.00
2018-03-07T02:15:32.608Z,19.40
2018-03-07T02:16:32.091Z,19.10
2018-03-07T02:18:28.058Z,20.40
2018-03-07T02:19:28.027Z,19.20
2018-03-07T02:21:23.958Z,19.00
2018-03-07T02:22:23.937Z,18.70
2018-03-07T02:24:20.354Z,17.60
2018-03-07T02:25:19.842Z,17.50
2018-03-07T02:27:15.774Z,17.90
2018-03-07T02:28:15.780Z,18.40
2018-03-07T02:30:11.719Z,18.40
2018-03-07T02:31:11.709Z,18.80
2018-03-07T02:33:07.677Z,18.10
2018-03-07T02:34:07.635Z,17.80
2018-03-07T02:36:04.101Z,19.00
2018-03-07T02:37:03.574Z,18.90
2018-03-07T02:39:00.027Z,19.30
2018-03-07T02:39:59.470Z,18.50
2018-03-07T02:41:55.447Z,17.60
2018-03-07T02:42:55.422Z,17.60
2018-03-07T02:44:51.419Z,16.70
2018-03-07T02:45:51.901Z,16.90
2018-03-07T02:47:48.264Z,17.30
2018-03-07T02:48:47.845Z,17.60
2018-03-07T02:50:43.290Z,15.80
2018-03-07T02:51:43.768Z,16.80
2018-03-07T02:53:39.722Z,16.60
2018-03-07T02:54:39.184Z,17.10
2018-03-07T02:56:35.624Z,18.20
2018-03-07T02:57:35.144Z,19.90
2018-03-07T02:59:31.104Z,19.90
2018-03-07T03:00:31.624Z,20.40
2018-03-07T03:02:28.028Z,18.90
2018-03-07T03:03:27.523Z,20.00
2018-03-07T03:05:23.435Z,19.80
2018-03-07T03:06:22.922Z,20.50
2018-03-07T03:08:18.890Z,20.20
2018-03-07T03:09:19.353Z,20.00
2018-03-07T03:11:15.283Z,18.90
2018-03-07T03:12:15.758Z,19.50
2018-03-07T03:14:10.710Z,19.20
2018-03-07T03:15:11.229Z,19.00
2018-03-07T03:17:07.162Z,18.80
2018-03-07T03:18:06.620Z,18.60
2018-03-07T03:20:03.068Z,18.30
2018-03-07T03:21:02.548Z,18.30
2018-03-07T03:23:00.033Z,17.90
2018-03-07T03:23:58.504Z,17.60
2018-03-07T03:25:54.476Z,16.30
2018-03-07T03:26:54.458Z,17.60
2018-03-07T03:28:50.909Z,15.80
2018-03-07T03:29:50.375Z,15.30
2018-03-07T03:31:46.815Z,16.20
2018-03-07T03:32:46.818Z,15.10
2018-03-07T03:34:42.746Z,15.20
2018-03-07T03:35:42.252Z,15.30
2018-03-07T03:37:38.194Z,15.20
2018-03-07T03:38:39.674Z,15.60
2018-03-07T03:40:34.625Z,15.00
2018-03-07T03:41:34.098Z,15.10
2018-03-07T03:43:30.044Z,16.90
2018-03-07T03:44:30.035Z,16.30
2018-03-07T03:46:26.490Z,16.50
2018-03-07T03:47:25.978Z,16.70
2018-03-07T03:49:21.893Z,17.60
2018-03-07T03:50:21.894Z,17.40
2018-03-07T03:52:17.857Z,16.60
2018-03-07T03:53:17.818Z,17.20
2018-03-07T03:55:13.792Z,17.10
2018-03-07T03:56:14.277Z,17.90
2018-03-07T03:58:10.707Z,18.10
2018-03-07T03:59:09.676Z,17.10
2018-03-07T04:01:06.127Z,17.90
2018-03-07T04:02:06.133Z,17.80
2018-03-07T04:04:01.534Z,17.40
2018-03-07T04:05:01.543Z,17.60
2018-03-07T04:06:57.501Z,17.90
2018-03-07T04:07:57.453Z,17.10
2018-03-07T04:09:53.380Z,16.90
2018-03-07T04:10:53.391Z,17.80
2018-03-07T04:12:49.844Z,18.20
2018-03-07T04:13:49.320Z,16.60
2018-03-07T04:15:45.281Z,17.70
2018-03-07T04:16:45.248Z,17.10
2018-03-07T04:18:41.223Z,17.70
2018-03-07T04:19:41.155Z,18.00
2018-03-07T04:21:37.600Z,18.30
2018-03-07T04:22:37.120Z,17.10
2018-03-07T04:24:33.043Z,19.60
2018-03-07T04:25:33.582Z,19.50
2018-03-07T04:27:28.972Z,19.40
2018-03-07T04:28:28.957Z,18.70
2018-03-07T04:30:25.410Z,19.50
2018-03-07T04:31:24.896Z,18.60
2018-03-07T04:33:21.821Z,18.00
2018-03-07T04:34:20.822Z,17.30
2018-03-07T04:36:17.269Z,16.60
2018-03-07T04:37:16.737Z,16.90
2018-03-07T04:39:14.704Z,16.80
2018-03-07T04:40:15.194Z,16.70
2018-03-07T04:42:11.116Z,17.20
2018-03-07T04:43:10.605Z,16.20
2018-03-07T04:45:06.573Z,16.90
2018-03-07T04:46:06.525Z,16.10
2018-03-07T04:48:02.480Z,15.80
2018-03-07T04:49:02.511Z,16.40
2018-03-07T04:50:58.919Z,16.90
2018-03-07T04:51:58.408Z,17.40
2018-03-07T04:53:54.343Z,17.50
2018-03-07T04:54:54.850Z,16.90
2018-03-07T04:56:53.288Z,17.90
2018-03-07T04:57:52.366Z,17.30
2018-03-07T04:59:48.334Z,17.00
2018-03-07T05:00:48.293Z,17.10
2018-03-07T05:02:44.849Z,18.10
2018-03-07T05:03:44.231Z,17.10
2018-03-07T05:05:41.091Z,16.70
2018-03-07T05:06:40.659Z,16.80
2018-03-07T05:08:36.594Z,19.20
2018-03-07T05:09:36.062Z,18.80
2018-03-07T05:11:31.976Z,17.70
2018-03-07T05:12:32.002Z,17.30
2018-03-07T05:14:29.424Z,18.00
2018-03-07T05:15:29.435Z,17.30
2018-03-07T05:17:23.850Z,24.40
2018-03-07T05:18:23.850Z,22.50
2018-03-07T05:20:20.724Z,17.70
2018-03-07T05:21:19.774Z,18.70
2018-03-07T05:23:15.742Z,18.00
2018-03-07T05:24:15.694Z,16.80
2018-03-07T05:26:11.661Z,18.20
2018-03-07T05:27:11.642Z,17.80
2018-03-07T05:29:07.596Z,17.30
2018-03-07T05:30:07.576Z,16.90
2018-03-07T05:32:03.537Z,18.40
2018-03-07T05:33:04.020Z,17.50
2018-03-07T05:34:59.948Z,18.10
2018-03-07T05:35:59.441Z,17.40
2018-03-07T05:37:55.868Z,17.20
2018-03-07T05:38:55.370Z,17.20
2018-03-07T05:40:51.328Z,17.70
2018-03-07T05:41:51.306Z,18.10
2018-03-07T05:43:47.744Z,17.00
2018-03-07T05:44:47.234Z,17.90
2018-03-07T05:46:43.189Z,19.20
2018-03-07T05:47:43.172Z,18.10
2018-03-07T05:49:41.117Z,19.10
2018-03-07T05:50:41.625Z,18.10
2018-03-07T05:52:37.074Z,18.50
2018-03-07T05:53:37.066Z,18.20
2018-03-07T05:55:34.513Z,18.20
2018-03-07T05:56:33.012Z,19.10
2018-03-07T05:58:28.959Z,19.20
2018-03-07T05:59:28.897Z,19.20
2018-03-07T06:01:25.843Z,17.80
2018-03-07T06:02:25.347Z,19.10
2018-03-07T06:04:23.281Z,19.10
2018-03-07T06:05:23.281Z,20.30
2018-03-07T06:07:20.220Z,19.50
2018-03-07T06:08:19.726Z,19.00
2018-03-07T06:10:15.665Z,19.40
2018-03-07T06:11:15.638Z,19.50
2018-03-07T06:13:14.589Z,19.90
2018-03-07T06:14:13.584Z,21.10
2018-03-07T06:16:09.524Z,19.00
2018-03-07T06:17:09.505Z,19.20
2018-03-07T06:19:05.429Z,22.30
2018-03-07T06:20:05.405Z,22.40
2018-03-07T06:22:01.888Z,19.90
2018-03-07T06:23:01.864Z,19.70
2018-03-07T06:24:59.328Z,21.60
2018-03-07T06:25:59.798Z,20.80
2018-03-07T06:27:55.715Z,19.40
2018-03-07T06:28:55.181Z,19.20
2018-03-07T06:30:51.106Z,20.20
2018-03-07T06:31:51.642Z,20.90
2018-03-07T06:33:47.066Z,19.80
2018-03-07T06:34:47.078Z,19.90
2018-03-07T06:36:42.995Z,20.80
2018-03-07T06:37:43.007Z,20.50
2018-03-07T06:39:38.977Z,21.30
2018-03-07T06:40:38.927Z,19.80
2018-03-07T06:42:34.834Z,19.80
2018-03-07T06:43:34.853Z,20.00
2018-03-07T06:45:30.796Z,20.10
2018-03-07T06:46:31.300Z,19.30
2018-03-07T06:48:27.721Z,18.30
2018-03-07T06:49:27.226Z,18.00
2018-03-07T06:51:22.637Z,20.70
2018-03-07T06:52:22.624Z,21.10
2018-03-07T06:54:19.077Z,20.60
2018-03-07T06:55:18.586Z,19.90
2018-03-07T06:57:14.527Z,21.40
2018-03-07T06:58:15.020Z,21.10
2018-03-07T07:00:10.448Z,19.10
2018-03-07T07:01:10.429Z,18.50
2018-03-07T07:03:06.374Z,19.20
2018-03-07T07:04:06.867Z,19.30
2018-03-07T07:06:04.271Z,19.30
2018-03-07T07:07:04.276Z,20.10
2018-03-07T07:09:02.253Z,20.10
2018-03-07T07:10:02.726Z,20.20
2018-03-07T07:11:58.668Z,20.60
2018-03-07T07:12:58.114Z,21.20
2018-03-07T07:14:54.060Z,19.30
2018-03-07T07:15:54.564Z,19.90
2018-03-07T07:17:50.475Z,19.20
2018-03-07T07:18:49.948Z,19.80
2018-03-07T07:20:47.879Z,20.60
2018-03-07T07:21:47.871Z,20.60
2018-03-07T07:23:43.802Z,19.80
2018-03-07T07:24:44.319Z,19.70
2018-03-07T07:26:39.756Z,19.30
2018-03-07T07:27:40.235Z,19.80
2018-03-07T07:29:37.685Z,21.20
2018-03-07T07:30:37.647Z,21.20
2018-03-07T07:32:35.586Z,19.50
2018-03-07T07:33:35.580Z,19.50
2018-03-07T07:35:31.502Z,19.30
2018-03-07T07:36:31.524Z,20.30
2018-03-07T07:38:29.486Z,19.40
2018-03-07T07:39:29.421Z,20.60
2018-03-07T07:41:27.358Z,20.80
2018-03-07T07:42:27.358Z,21.40
2018-03-07T07:44:23.812Z,20.90
2018-03-07T07:45:23.264Z,20.70
2018-03-07T07:47:19.233Z,20.10
2018-03-07T07:48:19.196Z,20.00
2018-03-07T07:50:16.150Z,21.30
2018-03-07T07:51:15.166Z,21.00
2018-03-07T07:53:12.098Z,21.10
2018-03-07T07:54:11.070Z,20.30
2018-03-07T07:56:07.542Z,19.50
2018-03-07T07:57:07.513Z,20.40
2018-03-07T07:59:03.472Z,20.40
2018-03-07T08:00:02.886Z,20.90
2018-03-07T08:01:59.369Z,19.50
2018-03-07T08:02:58.825Z,20.30
2018-03-07T08:04:56.757Z,19.20
2018-03-07T08:05:56.801Z,18.80
2018-03-07T08:07:52.711Z,20.60
2018-03-07T08:08:52.676Z,19.90
2018-03-07T08:10:51.123Z,19.20
2018-03-07T08:11:50.600Z,19.80
2018-03-07T08:13:48.570Z,20.70
2018-03-07T08:14:48.542Z,20.80
2018-03-07T08:16:46.981Z,21.10
2018-03-07T08:17:46.467Z,20.70
2018-03-07T08:19:44.444Z,20.90
2018-03-07T08:20:44.382Z,21.00
2018-03-07T08:22:40.845Z,19.40
2018-03-07T08:23:40.316Z,20.50
2018-03-07T08:25:36.275Z,19.90
2018-03-07T08:26:36.764Z,19.10
2018-03-07T08:28:32.220Z,18.90
2018-03-07T08:29:32.175Z,18.90
2018-03-07T08:33:04.769Z,19.00
2018-03-07T08:34:04.765Z,19.40
2018-03-07T08:36:01.205Z,17.90
2018-03-07T08:37:00.668Z,19.80
2018-03-07T08:38:58.648Z,21.00
2018-03-07T08:39:58.571Z,19.90
2018-03-07T08:41:54.490Z,21.70
2018-03-07T08:42:54.490Z,18.90
2018-03-07T08:44:51.448Z,20.10
2018-03-07T08:45:50.432Z,20.20
2018-03-07T08:47:48.430Z,20.50
2018-03-07T08:48:48.372Z,20.20
2018-03-07T08:50:46.326Z,20.90
2018-03-07T08:51:46.820Z,20.60
2018-03-07T08:53:45.668Z,20.60
2018-03-07T08:54:44.740Z,21.30
2018-03-07T08:56:40.664Z,21.20
2018-03-07T08:57:40.149Z,21.10
2018-03-07T08:59:36.624Z,20.40
2018-03-07T09:00:36.128Z,20.90
2018-03-07T09:02:32.037Z,19.40
2018-03-07T09:03:32.555Z,20.70
2018-03-07T09:05:28.510Z,20.00
2018-03-07T09:06:28.015Z,19.30
2018-03-07T09:08:26.029Z,20.30
2018-03-07T09:09:26.039Z,20.00
2018-03-07T09:11:21.964Z,19.60
2018-03-07T09:12:21.963Z,19.00
2018-03-07T09:14:17.940Z,21.00
2018-03-07T09:15:17.900Z,21.20
2018-03-07T09:17:15.852Z,19.00
2018-03-07T09:18:15.826Z,20.30
2018-03-07T09:20:12.286Z,20.10
2018-03-07T09:21:11.751Z,19.10
2018-03-07T09:23:07.692Z,20.10
2018-03-07T09:24:07.679Z,18.70
2018-03-07T09:26:04.132Z,19.70
2018-03-07T09:27:03.623Z,19.50
2018-03-07T09:29:00.577Z,19.10
2018-03-07T09:30:00.082Z,19.80
2018-03-07T09:31:55.999Z,20.20
2018-03-07T09:32:55.504Z,20.40
2018-03-07T09:34:51.488Z,22.10
2018-03-07T09:35:51.960Z,23.80
2018-03-07T09:37:49.904Z,20.00
2018-03-07T09:38:49.358Z,20.70
2018-03-07T09:40:45.875Z,20.00
2018-03-07T09:41:45.312Z,20.40
2018-03-07T09:43:41.279Z,21.10
2018-03-07T09:44:41.256Z,21.20
2018-03-07T09:46:37.722Z,20.90
2018-03-07T09:47:37.188Z,22.50
2018-03-07T09:49:34.082Z,23.00
2018-03-07T09:50:33.698Z,21.20
2018-03-07T09:52:29.087Z,22.40
2018-03-07T09:53:29.065Z,22.50
2018-03-07T09:55:25.046Z,22.40
2018-03-07T09:56:25.068Z,22.60
2018-03-07T09:58:20.922Z,24.20
2018-03-07T09:59:22.400Z,24.80
2018-03-07T10:01:16.887Z,23.70
2018-03-07T10:02:16.892Z,25.50
2018-03-07T10:04:13.831Z,24.10
2018-03-07T10:05:12.820Z,23.30
2018-03-07T10:07:09.821Z,22.80
2018-03-07T10:08:09.327Z,24.50
2018-03-07T10:10:02.210Z,23.50
2018-03-07T10:11:02.188Z,22.90
2018-03-07T10:12:59.642Z,24.90
2018-03-07T10:13:58.139Z,23.40
2018-03-07T10:15:53.604Z,24.60
2018-03-07T10:16:52.559Z,24.90
2018-03-07T10:18:48.494Z,25.00
2018-03-07T10:19:48.506Z,25.60
2018-03-07T10:21:44.445Z,24.90
2018-03-07T10:22:46.005Z,23.70
2018-03-07T10:24:40.409Z,25.10
2018-03-07T10:25:40.344Z,25.20
2018-03-07T10:27:36.297Z,27.00
2018-03-07T10:28:36.361Z,25.70
2018-03-07T10:30:31.681Z,25.00
2018-03-07T10:31:30.725Z,25.90
2018-03-07T10:33:26.654Z,26.60
2018-03-07T10:34:26.689Z,26.20
2018-03-07T10:36:22.661Z,25.50
2018-03-07T10:37:22.622Z,25.70
2018-03-07T10:39:18.599Z,27.30
2018-03-07T10:40:18.585Z,25.90
2018-03-07T10:42:15.024Z,28.00
2018-03-07T10:43:14.530Z,26.00
2018-03-07T10:45:08.964Z,25.60
2018-03-07T10:46:08.966Z,23.90
2018-03-07T10:48:05.418Z,25.30
2018-03-07T10:49:04.918Z,25.70
2018-03-07T10:51:01.373Z,25.30
2018-03-07T10:52:00.868Z,23.30
2018-03-07T10:53:58.295Z,22.80
2018-03-07T10:54:56.780Z,22.60
2018-03-07T10:56:52.753Z,21.50
2018-03-07T10:57:52.705Z,22.10
2018-03-07T10:59:48.686Z,24.00
2018-03-07T11:00:48.656Z,23.80
2018-03-07T11:02:44.631Z,21.90
2018-03-07T11:03:44.585Z,24.50
2018-03-07T11:05:41.540Z,23.20
2018-03-07T11:06:40.566Z,24.20
2018-03-07T11:08:35.000Z,22.80
2018-03-07T11:09:35.516Z,21.30
2018-03-07T11:11:30.884Z,21.90
2018-03-07T11:12:30.920Z,23.10
2018-03-07T11:14:25.323Z,22.90
2018-03-07T11:15:25.332Z,22.80
2018-03-07T11:17:21.286Z,21.10
2018-03-07T11:18:21.822Z,22.60
2018-03-07T11:20:17.222Z,22.80
2018-03-07T11:21:17.208Z,22.50
2018-03-07T11:23:13.699Z,22.40
2018-03-07T11:24:13.150Z,23.40
2018-03-07T11:26:09.120Z,22.80
2018-03-07T11:27:09.108Z,22.10
2018-03-07T11:29:05.039Z,23.80
2018-03-07T11:30:05.577Z,24.20
2018-03-07T11:32:00.970Z,23.90
2018-03-07T11:33:00.941Z,23.60
2018-03-07T11:34:57.401Z,22.30
2018-03-07T11:35:56.876Z,23.20
2018-03-07T11:37:52.809Z,19.90
2018-03-07T11:38:53.334Z,20.30
2018-03-07T11:40:48.766Z,21.40
2018-03-07T11:41:48.735Z,21.00
2018-03-07T11:43:44.692Z,21.00
2018-03-07T11:44:44.695Z,19.60
2018-03-07T11:46:40.634Z,20.20
2018-03-07T11:47:40.634Z,20.70
2018-03-07T11:49:35.069Z,20.40
2018-03-07T11:50:35.587Z,18.80
2018-03-07T11:52:31.051Z,19.10
2018-03-07T11:53:31.038Z,18.50
2018-03-07T11:55:26.975Z,18.80
2018-03-07T11:56:27.481Z,18.30
2018-03-07T11:58:23.435Z,19.50
2018-03-07T11:59:22.893Z,18.20
2018-03-07T12:01:17.360Z,18.30
2018-03-07T12:02:17.841Z,17.40
2018-03-07T12:04:13.792Z,15.20
2018-03-07T12:05:13.280Z,14.90
2018-03-07T12:07:09.267Z,15.30
2018-03-07T12:08:09.227Z,14.70
2018-03-07T12:10:05.157Z,11.20
2018-03-07T12:11:05.146Z,9.60
2018-03-07T12:13:01.099Z,8.90
2018-03-07T12:14:01.084Z,8.40
2018-03-07T12:15:57.000Z,8.20
2018-03-07T12:16:57.034Z,7.60
2018-03-07T12:18:52.924Z,7.40
2018-03-07T12:19:52.925Z,7.10
2018-03-07T12:21:47.358Z,6.50
2018-03-07T12:22:47.354Z,5.80
2018-03-07T12:24:43.373Z,6.20
2018-03-07T12:25:43.827Z,5.60
2018-03-07T12:27:39.760Z,5.10
2018-03-07T12:28:39.279Z,5.10
2018-03-07T12:30:35.230Z,5.20
2018-03-07T12:31:35.197Z,4.70
2018-03-07T12:33:29.647Z,4.60
2018-03-07T12:34:29.627Z,5.00
2018-03-07T12:36:25.592Z,4.60
2018-03-07T12:37:26.105Z,4.60
2018-03-07T12:39:22.523Z,5.30
2018-03-07T12:40:21.511Z,5.70
2018-03-07T12:42:15.987Z,6.10
2018-03-07T12:43:15.963Z,6.10
2018-03-07T12:45:12.416Z,6.90
2018-03-07T12:46:11.903Z,7.00
2018-03-07T12:48:08.365Z,7.10
2018-03-07T12:49:07.799Z,8.90
2018-03-07T12:51:02.274Z,7.70
2018-03-07T12:52:00.801Z,8.70
2018-03-07T12:53:54.752Z,7.70
2018-03-07T12:54:54.246Z,8.80
2018-03-07T12:56:50.155Z,7.00
2018-03-07T12:57:50.711Z,7.40
2018-03-07T12:59:44.665Z,8.90
2018-03-07T13:00:44.598Z,9.20
2018-03-07T13:02:40.561Z,8.40
2018-03-07T13:03:40.548Z,9.50
2018-03-07T13:05:36.528Z,7.90
2018-03-07T13:06:36.515Z,8.50
2018-03-07T13:08:31.475Z,8.10
2018-03-07T13:09:31.880Z,8.70
2018-03-07T13:11:26.875Z,7.20
2018-03-07T13:12:26.834Z,8.90
2018-03-07T13:14:22.764Z,6.20
2018-03-07T13:15:22.785Z,6.60
2018-03-07T13:17:19.668Z,7.50
2018-03-07T13:18:19.241Z,7.10
2018-03-07T13:20:13.170Z,7.10
2018-03-07T13:21:13.136Z,6.70
2018-03-07T13:23:08.094Z,5.70
2018-03-07T13:24:07.586Z,5.20
2018-03-07T13:26:04.030Z,5.80
2018-03-07T13:27:03.528Z,5.60
2018-03-07T13:28:56.955Z,5.80
2018-03-07T13:29:57.495Z,6.30
2018-03-07T13:31:51.355Z,5.90
2018-03-07T13:32:51.367Z,5.30
2018-03-07T13:34:47.331Z,5.00
2018-03-07T13:35:47.817Z,5.50
2018-03-07T13:37:43.758Z,5.20
2018-03-07T13:38:43.225Z,5.70
2018-03-07T13:40:37.669Z,6.80
2018-03-07T13:41:37.664Z,6.40
2018-03-07T13:43:32.622Z,5.50
2018-03-07T13:44:32.625Z,6.30
2018-03-07T13:46:27.077Z,6.90
2018-03-07T13:47:26.560Z,5.50
2018-03-07T13:49:21.516Z,5.20
2018-03-07T13:50:20.975Z,5.60
2018-03-07T13:52:16.925Z,4.90
2018-03-07T13:53:17.441Z,5.40
2018-03-07T13:55:11.874Z,5.20
2018-03-07T13:56:11.364Z,5.30
2018-03-07T13:58:04.773Z,5.50
2018-03-07T13:59:04.765Z,5.50
2018-03-07T14:00:59.209Z,5.20
2018-03-07T14:01:59.213Z,5.70
2018-03-07T14:03:55.675Z,5.60
2018-03-07T14:04:55.147Z,5.00
2018-03-07T14:06:49.584Z,5.20
2018-03-07T14:07:49.581Z,6.50
2018-03-07T14:09:44.572Z,5.20
2018-03-07T14:10:44.041Z,5.20
2018-03-07T14:12:38.521Z,6.30
2018-03-07T14:13:38.494Z,5.40
2018-03-07T14:15:35.448Z,4.90
2018-03-07T14:16:34.958Z,5.70
2018-03-07T14:18:30.389Z,5.50
2018-03-07T14:19:30.345Z,5.60
2018-03-07T14:21:26.807Z,4.80
2018-03-07T14:22:26.300Z,5.20
2018-03-07T14:24:20.767Z,5.60
2018-03-07T14:25:20.738Z,5.30
2018-03-07T14:27:17.196Z,5.50
2018-03-07T14:28:17.633Z,5.70
2018-03-07T14:30:12.593Z,5.40
2018-03-07T14:31:12.599Z,5.30
2018-03-07T14:33:07.191Z,5.50
2018-03-07T14:34:07.181Z,5.50
2018-03-07T14:36:03.110Z,5.00
2018-03-07T14:37:03.643Z,5.70
2018-03-07T14:38:59.047Z,5.80
2018-03-07T14:39:59.039Z,6.10
2018-03-07T14:41:55.485Z,5.50
2018-03-07T14:42:54.970Z,5.20
2018-03-07T14:44:49.409Z,6.30
2018-03-07T14:45:49.393Z,5.30
2018-03-07T14:47:46.361Z,5.80
2018-03-07T14:50:08.493Z,4.90
2018-03-07T14:50:59.810Z,5.30
2018-03-07T14:52:57.258Z,4.80
2018-03-07T14:53:55.211Z,5.10
2018-03-07T14:55:49.679Z,4.50
2018-03-07T14:58:09.626Z,4.20
2018-03-07T14:59:09.370Z,4.00
2018-03-07T15:01:06.511Z,3.80
2018-03-07T15:02:06.533Z,3.80
2018-03-07T15:04:02.464Z,4.40
2018-03-07T15:05:02.972Z,4.10
2018-03-07T15:07:22.318Z,3.70
2018-03-07T15:08:22.348Z,3.80
2018-03-07T15:10:18.784Z,3.50
2018-03-07T15:11:19.773Z,3.00
2018-03-07T15:13:14.182Z,3.60
2018-03-07T15:14:14.193Z,3.20
2018-03-07T15:16:10.171Z,3.60
2018-03-07T15:17:10.646Z,3.30
2018-03-07T15:19:06.076Z,5.60
2018-03-07T15:20:06.060Z,4.30
2018-03-07T15:22:02.017Z,5.20
2018-03-07T15:24:18.240Z,4.80
2018-03-07T15:25:17.930Z,4.90
2018-03-07T15:27:14.897Z,2.90
2018-03-07T15:29:37.938Z,3.70
2018-03-07T15:30:33.971Z,4.40
2018-03-07T15:32:28.810Z,3.10
2018-03-07T15:33:28.298Z,3.20
2018-03-07T15:35:25.916Z,5.20
2018-03-07T15:36:24.261Z,5.90
2018-03-07T15:38:21.697Z,3.30
2018-03-07T15:39:20.191Z,3.70
2018-03-07T15:41:16.614Z,4.20
2018-03-07T15:42:16.110Z,4.70
2018-03-07T15:44:12.053Z,5.00
2018-03-07T15:45:12.062Z,4.60
2018-03-07T15:47:08.517Z,3.10
2018-03-07T15:48:08.002Z,3.40
2018-03-07T15:50:03.931Z,3.30
2018-03-07T15:51:03.926Z,3.50
2018-03-07T15:52:58.877Z,4.60
2018-03-07T15:53:58.357Z,5.30
2018-03-07T15:55:56.294Z,5.70
2018-03-07T15:56:56.301Z,4.70
2018-03-07T15:58:52.748Z,5.70
2018-03-07T15:59:52.215Z,5.90
2018-03-07T16:01:47.182Z,6.30
2018-03-07T16:02:46.732Z,6.40
2018-03-07T16:04:42.200Z,3.80
2018-03-07T16:05:41.698Z,4.60
2018-03-07T16:07:37.119Z,7.30
2018-03-07T16:08:37.112Z,6.00
2018-03-07T16:10:31.576Z,5.10
2018-03-07T16:11:31.549Z,6.70
2018-03-07T16:13:28.489Z,6.30
2018-03-07T16:14:27.487Z,10.10
2018-03-07T16:16:22.939Z,8.10
2018-03-07T16:17:21.934Z,7.40
2018-03-07T16:19:17.904Z,7.80
2018-03-07T16:20:18.393Z,6.90
2018-03-07T16:22:13.792Z,5.30
2018-03-07T16:23:14.377Z,5.40
2018-03-07T16:25:15.276Z,5.10
2018-03-07T16:26:09.782Z,4.80
2018-03-07T16:28:05.734Z,4.60
2018-03-07T16:29:06.736Z,4.70
2018-03-07T16:31:03.195Z,4.40
2018-03-07T16:32:01.714Z,4.20
2018-03-07T16:33:58.639Z,4.70
2018-03-07T16:34:58.126Z,5.20
2018-03-07T16:36:52.111Z,5.20
2018-03-07T16:37:52.598Z,5.10
2018-03-07T16:39:48.027Z,5.50
2018-03-07T16:40:47.988Z,5.20
2018-03-07T16:42:42.940Z,4.60
2018-03-07T16:43:42.935Z,4.90
2018-03-07T16:45:38.390Z,4.80
2018-03-07T16:46:38.358Z,5.60
2018-03-07T16:48:34.365Z,5.20
2018-03-07T16:51:30.198Z,5.10
2018-03-07T16:52:30.185Z,5.00
2018-03-07T16:54:24.625Z,7.00
2018-03-07T16:55:24.623Z,5.60
2018-03-07T16:57:19.098Z,5.40
2018-03-07T16:58:19.069Z,6.00
2018-03-07T17:00:13.517Z,4.90
2018-03-07T17:01:13.498Z,4.90
2018-03-07T17:03:09.956Z,5.20
2018-03-07T17:04:09.448Z,5.30
2018-03-07T17:06:07.522Z,4.50
2018-03-07T17:07:07.546Z,4.80
2018-03-07T17:09:01.958Z,4.20
2018-03-07T17:10:01.954Z,3.80
2018-03-07T17:11:58.908Z,4.20
2018-03-07T17:12:57.897Z,4.10
2018-03-07T17:14:53.850Z,4.80
2018-03-07T17:15:53.861Z,5.10
2018-03-07T17:18:02.380Z,4.70
2018-03-07T17:19:00.936Z,4.70
2018-03-07T17:21:56.095Z,4.60
2018-03-07T17:22:56.206Z,4.90
2018-03-07T17:25:41.311Z,5.30
2018-03-07T17:26:14.302Z,3.90
2018-03-07T17:28:20.500Z,4.00
2018-03-07T17:29:21.287Z,3.20
2018-03-07T17:31:14.981Z,3.40
2018-03-07T17:32:14.955Z,3.30
2018-03-07T17:34:10.863Z,2.90
2018-03-07T17:35:10.882Z,2.90
2018-03-07T17:37:06.250Z,2.40
2018-03-07T17:38:05.368Z,2.30
2018-03-07T17:40:03.336Z,2.00
2018-03-07T17:41:03.354Z,2.20
2018-03-07T17:42:58.302Z,2.70
2018-03-07T17:43:57.787Z,2.80
2018-03-07T17:45:53.815Z,2.20
2018-03-07T17:46:53.738Z,2.60
2018-03-07T17:48:49.647Z,2.20
2018-03-07T17:49:49.657Z,2.10
2018-03-07T17:51:46.082Z,2.60
2018-03-07T17:52:45.564Z,2.60
2018-03-07T17:54:41.504Z,2.60
2018-03-07T17:55:42.006Z,2.60
2018-03-07T17:57:35.916Z,2.90
2018-03-07T17:58:35.925Z,3.00
2018-03-07T18:00:32.873Z,2.40
2018-03-07T18:01:31.867Z,3.10
2018-03-07T18:03:28.819Z,2.90
2018-03-07T18:04:27.823Z,3.00
2018-03-07T18:06:24.768Z,4.00
2018-03-07T18:07:24.306Z,4.20
2018-03-07T18:09:19.689Z,4.40
2018-03-07T18:10:19.701Z,4.60
2018-03-07T18:12:15.079Z,4.90
2018-03-07T18:13:14.137Z,5.10
2018-03-07T18:15:10.587Z,5.30
2018-03-07T18:16:10.584Z,5.30
2018-03-07T18:18:06.500Z,5.30
2018-03-07T18:19:06.016Z,6.20
2018-03-07T18:21:02.958Z,5.30
2018-03-07T18:22:01.964Z,4.70
2018-03-07T18:23:56.365Z,5.10
2018-03-07T18:24:56.375Z,5.40
2018-03-07T18:26:52.330Z,5.80
2018-03-07T18:27:52.816Z,6.30
2018-03-07T18:29:48.769Z,5.50
2018-03-07T18:30:48.227Z,5.00
2018-03-07T18:32:46.280Z,5.50
2018-03-07T18:33:47.196Z,5.20
2018-03-07T18:35:40.692Z,5.00
2018-03-07T18:36:40.694Z,5.00
2018-03-07T18:38:37.165Z,5.20
2018-03-07T18:39:36.633Z,4.60
2018-03-07T18:41:32.543Z,4.60
2018-03-07T18:42:33.055Z,4.90
2018-03-07T18:44:28.989Z,4.20
2018-03-07T18:45:28.453Z,3.40
2018-03-07T18:47:25.849Z,3.50
2018-03-07T18:48:24.396Z,3.50
2018-03-07T18:50:20.876Z,4.10
2018-03-07T18:51:20.360Z,3.70
2018-03-07T18:53:17.277Z,4.20
2018-03-07T18:54:16.285Z,4.40
2018-03-07T18:56:13.730Z,5.10
2018-03-07T18:57:12.189Z,5.20
2018-03-07T18:59:08.169Z,5.70
2018-03-07T19:00:08.093Z,6.50
2018-03-07T19:02:04.066Z,7.30
2018-03-07T19:03:04.024Z,7.50
2018-03-07T19:04:58.479Z,7.90
2018-03-07T19:05:58.470Z,7.60
2018-03-07T19:07:54.441Z,7.80
2018-03-07T19:08:54.395Z,7.70
2018-03-07T19:10:50.352Z,7.50
2018-03-07T19:11:50.316Z,6.90
2018-03-07T19:13:46.792Z,7.40